sensor_id;sensor_type;location;lat;lon;timestamp;P1;durP1;ratioP1;P2;durP2;ratioP2
13943;SDS011;7044;53.286;8.534;2022-10-16T00:01:05;3.78;;;2.88;;
13943;SDS011;7044;53.286;8.534;2022-10-16T00:03:32;5.38;;;2.85;;
13943;SDS011;7044;53.286;8.534;2022-10-16T00:05:59;4.70;;;2.60;;
13943;SDS011;7044;53.286;8.534;2022-10-16T00:08:27;3.80;;;2.53;;
13943;SDS011;7044;53.286;8.534;2022-10-16T00:10:58;5.95;;;2.30;;
13943;SDS011;7044;53.286;8.534;2022-10-16T00:13:27;3.63;;;2.65;;
13943;SDS011;7044;53.286;8.534;2022-10-16T00:15:55;4.40;;;2.42;;
13943;SDS011;7044;53.286;8.534;2022-10-16T00:18:22;6.97;;;2.45;;
13943;SDS011;7044;53.286;8.534;2022-10-16T00:20:49;3.13;;;2.08;;
13943;SDS011;7044;53.286;8.534;2022-10-16T00:23:16;4.95;;;2.42;;
13943;SDS011;7044;53.286;8.534;2022-10-16T00:25:43;3.25;;;2.17;;
13943;SDS011;7044;53.286;8.534;2022-10-16T00:28:10;5.43;;;2.08;;
13943;SDS011;7044;53.286;8.534;2022-10-16T00:30:38;5.80;;;2.13;;
13943;SDS011;7044;53.286;8.534;2022-10-16T00:33:05;6.28;;;2.10;;
13943;SDS011;7044;53.286;8.534;2022-10-16T00:35:32;2.40;;;2.10;;
13943;SDS011;7044;53.286;8.534;2022-10-16T00:37:59;7.43;;;2.40;;
13943;SDS011;7044;53.286;8.534;2022-10-16T00:40:26;3.05;;;2.13;;
13943;SDS011;7044;53.286;8.534;2022-10-16T00:42:53;3.25;;;1.70;;
13943;SDS011;7044;53.286;8.534;2022-10-16T00:45:20;3.50;;;2.22;;
13943;SDS011;7044;53.286;8.534;2022-10-16T00:47:48;3.42;;;2.13;;
13943;SDS011;7044;53.286;8.534;2022-10-16T00:50:18;4.80;;;2.10;;
13943;SDS011;7044;53.286;8.534;2022-10-16T00:52:50;3.40;;;1.92;;
13943;SDS011;7044;53.286;8.534;2022-10-16T00:55:18;4.50;;;2.22;;
13943;SDS011;7044;53.286;8.534;2022-10-16T00:57:45;2.42;;;2.00;;
13943;SDS011;7044;53.286;8.534;2022-10-16T01:00:13;3.00;;;1.75;;
13943;SDS011;7044;53.286;8.534;2022-10-16T01:02:42;2.08;;;1.85;;
13943;SDS011;7044;53.286;8.534;2022-10-16T01:05:10;2.22;;;1.75;;
13943;SDS011;7044;53.286;8.534;2022-10-16T01:07:40;3.67;;;1.80;;
13943;SDS011;7044;53.286;8.534;2022-10-16T01:10:19;3.53;;;1.50;;
13943;SDS011;7044;53.286;8.534;2022-10-16T01:12:54;3.80;;;1.70;;
13943;SDS011;7044;53.286;8.534;2022-10-16T01:15:26;4.88;;;2.08;;
13943;SDS011;7044;53.286;8.534;2022-10-16T01:17:57;2.00;;;1.67;;
13943;SDS011;7044;53.286;8.534;2022-10-16T01:20:30;5.97;;;1.85;;
13943;SDS011;7044;53.286;8.534;2022-10-16T01:23:01;6.13;;;1.75;;
13943;SDS011;7044;53.286;8.534;2022-10-16T01:28:27;2.83;;;1.70;;
13943;SDS011;7044;53.286;8.534;2022-10-16T01:30:58;2.13;;;1.63;;
13943;SDS011;7044;53.286;8.534;2022-10-16T01:33:28;2.58;;;1.63;;
13943;SDS011;7044;53.286;8.534;2022-10-16T01:36:01;3.03;;;1.67;;
13943;SDS011;7044;53.286;8.534;2022-10-16T01:38:34;3.90;;;1.63;;
13943;SDS011;7044;53.286;8.534;2022-10-16T01:41:04;5.15;;;1.85;;
13943;SDS011;7044;53.286;8.534;2022-10-16T01:43:37;3.38;;;2.25;;
13943;SDS011;7044;53.286;8.534;2022-10-16T01:46:07;4.75;;;2.33;;
13943;SDS011;7044;53.286;8.534;2022-10-16T01:48:36;3.30;;;1.42;;
13943;SDS011;7044;53.286;8.534;2022-10-16T01:51:04;6.32;;;1.98;;
13943;SDS011;7044;53.286;8.534;2022-10-16T01:53:34;2.38;;;1.60;;
13943;SDS011;7044;53.286;8.534;2022-10-16T01:56:01;3.22;;;1.70;;
13943;SDS011;7044;53.286;8.534;2022-10-16T01:58:30;9.75;;;1.85;;
13943;SDS011;7044;53.286;8.534;2022-10-16T02:01:02;5.70;;;2.15;;
13943;SDS011;7044;53.286;8.534;2022-10-16T02:03:33;6.15;;;1.67;;
13943;SDS011;7044;53.286;8.534;2022-10-16T02:06:01;1.90;;;1.60;;
13943;SDS011;7044;53.286;8.534;2022-10-16T02:08:28;6.95;;;1.85;;
13943;SDS011;7044;53.286;8.534;2022-10-16T02:10:56;5.22;;;1.80;;
13943;SDS011;7044;53.286;8.534;2022-10-16T02:13:26;3.83;;;1.90;;
13943;SDS011;7044;53.286;8.534;2022-10-16T02:15:56;8.57;;;1.92;;
13943;SDS011;7044;53.286;8.534;2022-10-16T02:18:25;5.47;;;1.75;;
13943;SDS011;7044;53.286;8.534;2022-10-16T02:20:55;2.95;;;1.70;;
13943;SDS011;7044;53.286;8.534;2022-10-16T02:23:27;3.78;;;1.60;;
13943;SDS011;7044;53.286;8.534;2022-10-16T02:26:00;4.35;;;1.75;;
13943;SDS011;7044;53.286;8.534;2022-10-16T02:28:31;4.18;;;2.10;;
13943;SDS011;7044;53.286;8.534;2022-10-16T02:31:03;2.83;;;1.60;;
13943;SDS011;7044;53.286;8.534;2022-10-16T02:33:33;1.95;;;1.75;;
13943;SDS011;7044;53.286;8.534;2022-10-16T02:36:03;2.03;;;1.40;;
13943;SDS011;7044;53.286;8.534;2022-10-16T02:38:30;5.13;;;1.92;;
13943;SDS011;7044;53.286;8.534;2022-10-16T02:40:58;1.80;;;1.52;;
13943;SDS011;7044;53.286;8.534;2022-10-16T02:43:25;4.72;;;2.00;;
13943;SDS011;7044;53.286;8.534;2022-10-16T02:45:52;3.72;;;1.80;;
13943;SDS011;7044;53.286;8.534;2022-10-16T02:48:18;2.03;;;1.73;;
13943;SDS011;7044;53.286;8.534;2022-10-16T02:50:46;4.93;;;1.75;;
13943;SDS011;7044;53.286;8.534;2022-10-16T02:53:13;4.95;;;1.60;;
13943;SDS011;7044;53.286;8.534;2022-10-16T02:55:40;7.63;;;1.77;;
13943;SDS011;7044;53.286;8.534;2022-10-16T02:58:07;3.25;;;1.65;;
13943;SDS011;7044;53.286;8.534;2022-10-16T03:00:34;3.70;;;2.30;;
13943;SDS011;7044;53.286;8.534;2022-10-16T03:03:01;5.63;;;2.80;;
13943;SDS011;7044;53.286;8.534;2022-10-16T03:05:27;1.90;;;1.58;;
13943;SDS011;7044;53.286;8.534;2022-10-16T03:07:55;3.28;;;1.70;;
13943;SDS011;7044;53.286;8.534;2022-10-16T03:10:25;2.55;;;1.60;;
13943;SDS011;7044;53.286;8.534;2022-10-16T03:12:52;3.70;;;1.70;;
13943;SDS011;7044;53.286;8.534;2022-10-16T03:15:18;2.60;;;1.77;;
13943;SDS011;7044;53.286;8.534;2022-10-16T03:17:45;3.85;;;1.50;;
13943;SDS011;7044;53.286;8.534;2022-10-16T03:20:12;3.17;;;1.98;;
13943;SDS011;7044;53.286;8.534;2022-10-16T03:22:39;3.15;;;1.60;;
13943;SDS011;7044;53.286;8.534;2022-10-16T03:25:07;2.08;;;1.75;;
13943;SDS011;7044;53.286;8.534;2022-10-16T03:27:35;3.67;;;2.15;;
13943;SDS011;7044;53.286;8.534;2022-10-16T03:30:01;2.45;;;1.50;;
13943;SDS011;7044;53.286;8.534;2022-10-16T03:32:28;6.82;;;1.73;;
13943;SDS011;7044;53.286;8.534;2022-10-16T03:34:55;2.00;;;1.58;;
13943;SDS011;7044;53.286;8.534;2022-10-16T03:37:22;3.25;;;2.00;;
13943;SDS011;7044;53.286;8.534;2022-10-16T03:39:49;6.75;;;2.00;;
13943;SDS011;7044;53.286;8.534;2022-10-16T03:42:17;5.68;;;1.88;;
13943;SDS011;7044;53.286;8.534;2022-10-16T03:44:44;6.35;;;1.65;;
13943;SDS011;7044;53.286;8.534;2022-10-16T03:47:11;3.15;;;1.80;;
13943;SDS011;7044;53.286;8.534;2022-10-16T03:49:38;4.72;;;1.90;;
13943;SDS011;7044;53.286;8.534;2022-10-16T03:52:05;2.97;;;1.83;;
13943;SDS011;7044;53.286;8.534;2022-10-16T03:54:31;3.45;;;1.63;;
13943;SDS011;7044;53.286;8.534;2022-10-16T03:56:58;5.28;;;1.88;;
13943;SDS011;7044;53.286;8.534;2022-10-16T03:59:26;4.38;;;1.95;;
13943;SDS011;7044;53.286;8.534;2022-10-16T04:01:53;2.38;;;2.17;;
13943;SDS011;7044;53.286;8.534;2022-10-16T04:04:20;4.63;;;2.03;;
13943;SDS011;7044;53.286;8.534;2022-10-16T04:06:47;2.28;;;1.75;;
13943;SDS011;7044;53.286;8.534;2022-10-16T04:09:13;5.00;;;1.98;;
13943;SDS011;7044;53.286;8.534;2022-10-16T04:11:40;5.15;;;2.15;;
13943;SDS011;7044;53.286;8.534;2022-10-16T04:14:07;4.40;;;2.03;;
13943;SDS011;7044;53.286;8.534;2022-10-16T04:16:35;13.68;;;4.53;;
13943;SDS011;7044;53.286;8.534;2022-10-16T04:19:02;8.60;;;2.42;;
13943;SDS011;7044;53.286;8.534;2022-10-16T04:21:29;4.20;;;2.42;;
13943;SDS011;7044;53.286;8.534;2022-10-16T04:23:56;4.65;;;2.70;;
13943;SDS011;7044;53.286;8.534;2022-10-16T04:26:22;3.85;;;2.65;;
13943;SDS011;7044;53.286;8.534;2022-10-16T04:28:49;5.30;;;3.17;;
13943;SDS011;7044;53.286;8.534;2022-10-16T04:31:16;4.97;;;2.47;;
13943;SDS011;7044;53.286;8.534;2022-10-16T04:33:44;3.97;;;2.92;;
13943;SDS011;7044;53.286;8.534;2022-10-16T04:36:11;3.25;;;2.67;;
13943;SDS011;7044;53.286;8.534;2022-10-16T04:38:38;3.00;;;2.58;;
13943;SDS011;7044;53.286;8.534;2022-10-16T04:41:05;3.90;;;2.67;;
13943;SDS011;7044;53.286;8.534;2022-10-16T04:43:32;5.60;;;2.60;;
13943;SDS011;7044;53.286;8.534;2022-10-16T04:46:00;8.50;;;3.30;;
13943;SDS011;7044;53.286;8.534;2022-10-16T04:48:27;5.03;;;2.95;;
13943;SDS011;7044;53.286;8.534;2022-10-16T04:50:55;5.07;;;3.17;;
13943;SDS011;7044;53.286;8.534;2022-10-16T04:53:21;4.38;;;3.10;;
13943;SDS011;7044;53.286;8.534;2022-10-16T04:55:48;11.02;;;3.13;;
13943;SDS011;7044;53.286;8.534;2022-10-16T04:58:15;7.15;;;3.40;;
13943;SDS011;7044;53.286;8.534;2022-10-16T05:00:43;6.30;;;3.15;;
13943;SDS011;7044;53.286;8.534;2022-10-16T05:03:11;5.82;;;3.17;;
13943;SDS011;7044;53.286;8.534;2022-10-16T05:05:41;6.38;;;3.75;;
13943;SDS011;7044;53.286;8.534;2022-10-16T05:08:10;5.82;;;3.65;;
13943;SDS011;7044;53.286;8.534;2022-10-16T05:10:37;7.60;;;3.03;;
13943;SDS011;7044;53.286;8.534;2022-10-16T05:13:04;9.77;;;3.63;;
13943;SDS011;7044;53.286;8.534;2022-10-16T05:15:30;5.63;;;3.58;;
13943;SDS011;7044;53.286;8.534;2022-10-16T05:17:57;4.57;;;3.35;;
13943;SDS011;7044;53.286;8.534;2022-10-16T05:20:24;7.05;;;3.70;;
13943;SDS011;7044;53.286;8.534;2022-10-16T05:22:51;4.65;;;2.97;;
13943;SDS011;7044;53.286;8.534;2022-10-16T05:25:19;5.07;;;3.28;;
13943;SDS011;7044;53.286;8.534;2022-10-16T05:27:46;4.15;;;3.58;;
13943;SDS011;7044;53.286;8.534;2022-10-16T05:30:14;5.13;;;3.47;;
13943;SDS011;7044;53.286;8.534;2022-10-16T05:32:41;7.53;;;3.85;;
13943;SDS011;7044;53.286;8.534;2022-10-16T05:35:08;6.30;;;3.90;;
13943;SDS011;7044;53.286;8.534;2022-10-16T05:37:34;5.68;;;3.92;;
13943;SDS011;7044;53.286;8.534;2022-10-16T05:40:01;7.22;;;4.07;;
13943;SDS011;7044;53.286;8.534;2022-10-16T05:42:31;5.97;;;4.10;;
13943;SDS011;7044;53.286;8.534;2022-10-16T05:44:58;9.45;;;3.97;;
13943;SDS011;7044;53.286;8.534;2022-10-16T05:47:24;5.50;;;3.58;;
13943;SDS011;7044;53.286;8.534;2022-10-16T05:49:51;8.48;;;4.03;;
13943;SDS011;7044;53.286;8.534;2022-10-16T05:52:18;6.93;;;4.07;;
13943;SDS011;7044;53.286;8.534;2022-10-16T05:54:45;5.63;;;4.07;;
13943;SDS011;7044;53.286;8.534;2022-10-16T05:57:11;9.70;;;4.05;;
13943;SDS011;7044;53.286;8.534;2022-10-16T05:59:40;7.07;;;4.03;;
13943;SDS011;7044;53.286;8.534;2022-10-16T06:02:07;6.05;;;4.10;;
13943;SDS011;7044;53.286;8.534;2022-10-16T06:04:37;5.90;;;4.30;;
13943;SDS011;7044;53.286;8.534;2022-10-16T06:07:04;5.97;;;4.45;;
13943;SDS011;7044;53.286;8.534;2022-10-16T06:09:31;6.97;;;4.72;;
13943;SDS011;7044;53.286;8.534;2022-10-16T06:11:58;11.73;;;4.53;;
13943;SDS011;7044;53.286;8.534;2022-10-16T06:14:25;8.15;;;4.20;;
13943;SDS011;7044;53.286;8.534;2022-10-16T06:16:53;8.93;;;4.55;;
13943;SDS011;7044;53.286;8.534;2022-10-16T06:19:20;7.20;;;4.53;;
13943;SDS011;7044;53.286;8.534;2022-10-16T06:21:47;6.10;;;4.20;;
13943;SDS011;7044;53.286;8.534;2022-10-16T06:24:14;7.30;;;4.53;;
13943;SDS011;7044;53.286;8.534;2022-10-16T06:26:41;11.45;;;5.03;;
13943;SDS011;7044;53.286;8.534;2022-10-16T06:29:08;9.18;;;5.20;;
13943;SDS011;7044;53.286;8.534;2022-10-16T06:31:35;9.50;;;5.22;;
13943;SDS011;7044;53.286;8.534;2022-10-16T06:34:03;7.55;;;4.53;;
13943;SDS011;7044;53.286;8.534;2022-10-16T06:36:34;11.70;;;5.38;;
13943;SDS011;7044;53.286;8.534;2022-10-16T06:39:01;9.13;;;5.00;;
13943;SDS011;7044;53.286;8.534;2022-10-16T06:41:28;7.88;;;5.35;;
13943;SDS011;7044;53.286;8.534;2022-10-16T06:43:54;9.85;;;5.32;;
13943;SDS011;7044;53.286;8.534;2022-10-16T06:46:22;6.95;;;4.57;;
13943;SDS011;7044;53.286;8.534;2022-10-16T06:48:50;9.23;;;4.72;;
13943;SDS011;7044;53.286;8.534;2022-10-16T06:51:18;8.40;;;4.72;;
13943;SDS011;7044;53.286;8.534;2022-10-16T06:53:47;8.95;;;5.07;;
13943;SDS011;7044;53.286;8.534;2022-10-16T06:56:15;10.88;;;4.90;;
13943;SDS011;7044;53.286;8.534;2022-10-16T06:58:44;7.25;;;4.90;;
13943;SDS011;7044;53.286;8.534;2022-10-16T07:01:11;6.50;;;4.78;;
13943;SDS011;7044;53.286;8.534;2022-10-16T07:03:39;7.55;;;4.30;;
13943;SDS011;7044;53.286;8.534;2022-10-16T07:06:07;6.43;;;5.32;;
13943;SDS011;7044;53.286;8.534;2022-10-16T07:08:37;6.40;;;4.25;;
13943;SDS011;7044;53.286;8.534;2022-10-16T07:11:05;7.35;;;4.90;;
13943;SDS011;7044;53.286;8.534;2022-10-16T07:13:34;6.65;;;4.28;;
13943;SDS011;7044;53.286;8.534;2022-10-16T07:16:05;8.65;;;6.28;;
13943;SDS011;7044;53.286;8.534;2022-10-16T07:18:32;6.03;;;4.40;;
13943;SDS011;7044;53.286;8.534;2022-10-16T07:21:03;3.95;;;3.50;;
13943;SDS011;7044;53.286;8.534;2022-10-16T07:23:30;6.40;;;3.85;;
13943;SDS011;7044;53.286;8.534;2022-10-16T07:25:58;4.97;;;3.65;;
13943;SDS011;7044;53.286;8.534;2022-10-16T07:28:26;12.40;;;4.82;;
13943;SDS011;7044;53.286;8.534;2022-10-16T07:30:52;5.65;;;3.97;;
13943;SDS011;7044;53.286;8.534;2022-10-16T07:33:19;7.03;;;4.50;;
13943;SDS011;7044;53.286;8.534;2022-10-16T07:35:50;9.43;;;4.68;;
13943;SDS011;7044;53.286;8.534;2022-10-16T07:38:18;6.68;;;4.13;;
13943;SDS011;7044;53.286;8.534;2022-10-16T07:40:45;6.20;;;4.57;;
13943;SDS011;7044;53.286;8.534;2022-10-16T07:43:14;4.95;;;3.97;;
13943;SDS011;7044;53.286;8.534;2022-10-16T07:45:47;5.57;;;3.92;;
13943;SDS011;7044;53.286;8.534;2022-10-16T07:48:15;7.95;;;4.40;;
13943;SDS011;7044;53.286;8.534;2022-10-16T07:50:42;5.72;;;3.95;;
13943;SDS011;7044;53.286;8.534;2022-10-16T07:53:09;7.53;;;4.22;;
13943;SDS011;7044;53.286;8.534;2022-10-16T07:55:37;6.32;;;3.60;;
13943;SDS011;7044;53.286;8.534;2022-10-16T07:58:04;6.70;;;3.60;;
13943;SDS011;7044;53.286;8.534;2022-10-16T08:00:32;6.28;;;3.97;;
13943;SDS011;7044;53.286;8.534;2022-10-16T08:03:00;7.72;;;4.22;;
13943;SDS011;7044;53.286;8.534;2022-10-16T08:05:26;4.13;;;2.97;;
13943;SDS011;7044;53.286;8.534;2022-10-16T08:07:53;4.80;;;3.67;;
13943;SDS011;7044;53.286;8.534;2022-10-16T08:10:22;5.55;;;3.92;;
13943;SDS011;7044;53.286;8.534;2022-10-16T08:12:50;5.55;;;3.60;;
13943;SDS011;7044;53.286;8.534;2022-10-16T08:15:17;4.10;;;3.50;;
13943;SDS011;7044;53.286;8.534;2022-10-16T08:17:53;4.15;;;3.25;;
13943;SDS011;7044;53.286;8.534;2022-10-16T08:20:21;6.28;;;3.58;;
13943;SDS011;7044;53.286;8.534;2022-10-16T08:22:47;5.60;;;3.17;;
13943;SDS011;7044;53.286;8.534;2022-10-16T08:25:14;6.72;;;3.25;;
13943;SDS011;7044;53.286;8.534;2022-10-16T08:27:41;5.68;;;3.63;;
13943;SDS011;7044;53.286;8.534;2022-10-16T08:30:10;4.75;;;3.08;;
13943;SDS011;7044;53.286;8.534;2022-10-16T08:32:37;3.03;;;2.72;;
13943;SDS011;7044;53.286;8.534;2022-10-16T08:35:05;4.22;;;3.10;;
13943;SDS011;7044;53.286;8.534;2022-10-16T08:37:32;5.05;;;3.17;;
13943;SDS011;7044;53.286;8.534;2022-10-16T08:39:59;4.75;;;2.90;;
13943;SDS011;7044;53.286;8.534;2022-10-16T08:42:32;5.85;;;2.95;;
13943;SDS011;7044;53.286;8.534;2022-10-16T08:45:13;6.70;;;2.80;;
13943;SDS011;7044;53.286;8.534;2022-10-16T08:47:48;7.63;;;2.80;;
13943;SDS011;7044;53.286;8.534;2022-10-16T08:50:24;3.17;;;2.60;;
13943;SDS011;7044;53.286;8.534;2022-10-16T08:52:53;3.13;;;2.30;;
13943;SDS011;7044;53.286;8.534;2022-10-16T08:55:30;4.07;;;2.17;;
13943;SDS011;7044;53.286;8.534;2022-10-16T08:58:00;4.93;;;2.38;;
13943;SDS011;7044;53.286;8.534;2022-10-16T09:00:28;5.65;;;2.33;;
13943;SDS011;7044;53.286;8.534;2022-10-16T09:02:59;6.53;;;2.70;;
13943;SDS011;7044;53.286;8.534;2022-10-16T09:05:41;5.07;;;2.20;;
13943;SDS011;7044;53.286;8.534;2022-10-16T09:08:16;5.28;;;2.33;;
13943;SDS011;7044;53.286;8.534;2022-10-16T09:10:56;3.15;;;2.22;;
13943;SDS011;7044;53.286;8.534;2022-10-16T09:13:26;3.05;;;2.13;;
13943;SDS011;7044;53.286;8.534;2022-10-16T09:15:57;6.50;;;2.10;;
13943;SDS011;7044;53.286;8.534;2022-10-16T09:18:32;5.13;;;1.98;;
13943;SDS011;7044;53.286;8.534;2022-10-16T09:21:09;5.57;;;1.98;;
13943;SDS011;7044;53.286;8.534;2022-10-16T09:23:40;3.20;;;1.60;;
13943;SDS011;7044;53.286;8.534;2022-10-16T09:26:09;4.35;;;1.98;;
13943;SDS011;7044;53.286;8.534;2022-10-16T09:28:37;4.60;;;1.83;;
13943;SDS011;7044;53.286;8.534;2022-10-16T09:31:04;5.03;;;1.70;;
13943;SDS011;7044;53.286;8.534;2022-10-16T09:33:33;4.95;;;1.38;;
13943;SDS011;7044;53.286;8.534;2022-10-16T09:36:02;6.05;;;1.92;;
13943;SDS011;7044;53.286;8.534;2022-10-16T09:38:33;1.95;;;1.55;;
13943;SDS011;7044;53.286;8.534;2022-10-16T09:41:02;4.80;;;2.05;;
13943;SDS011;7044;53.286;8.534;2022-10-16T09:43:39;4.13;;;1.63;;
13943;SDS011;7044;53.286;8.534;2022-10-16T09:46:08;2.17;;;1.50;;
13943;SDS011;7044;53.286;8.534;2022-10-16T09:48:48;7.55;;;1.60;;
13943;SDS011;7044;53.286;8.534;2022-10-16T09:51:17;3.58;;;1.65;;
13943;SDS011;7044;53.286;8.534;2022-10-16T09:53:47;3.50;;;1.83;;
13943;SDS011;7044;53.286;8.534;2022-10-16T09:56:21;5.25;;;1.60;;
13943;SDS011;7044;53.286;8.534;2022-10-16T09:58:50;6.75;;;2.10;;
13943;SDS011;7044;53.286;8.534;2022-10-16T10:01:18;7.70;;;1.85;;
13943;SDS011;7044;53.286;8.534;2022-10-16T10:03:46;3.85;;;1.52;;
13943;SDS011;7044;53.286;8.534;2022-10-16T10:06:16;6.43;;;1.40;;
13943;SDS011;7044;53.286;8.534;2022-10-16T10:08:56;1.98;;;1.60;;
13943;SDS011;7044;53.286;8.534;2022-10-16T10:11:37;1.55;;;1.20;;
13943;SDS011;7044;53.286;8.534;2022-10-16T10:14:06;2.30;;;1.35;;
13943;SDS011;7044;53.286;8.534;2022-10-16T10:16:39;2.25;;;1.05;;
13943;SDS011;7044;53.286;8.534;2022-10-16T10:19:09;3.10;;;1.33;;
13943;SDS011;7044;53.286;8.534;2022-10-16T10:21:40;2.78;;;1.20;;
13943;SDS011;7044;53.286;8.534;2022-10-16T10:24:10;2.55;;;1.27;;
13943;SDS011;7044;53.286;8.534;2022-10-16T10:26:38;1.30;;;1.13;;
13943;SDS011;7044;53.286;8.534;2022-10-16T10:29:13;3.17;;;1.05;;
13943;SDS011;7044;53.286;8.534;2022-10-16T10:31:51;8.60;;;1.65;;
13943;SDS011;7044;53.286;8.534;2022-10-16T10:34:26;2.08;;;1.27;;
13943;SDS011;7044;53.286;8.534;2022-10-16T10:37:08;3.50;;;1.40;;
13943;SDS011;7044;53.286;8.534;2022-10-16T10:39:49;2.80;;;1.40;;
13943;SDS011;7044;53.286;8.534;2022-10-16T10:42:25;4.05;;;1.38;;
13943;SDS011;7044;53.286;8.534;2022-10-16T10:44:57;3.75;;;1.35;;
13943;SDS011;7044;53.286;8.534;2022-10-16T10:47:40;4.00;;;1.02;;
13943;SDS011;7044;53.286;8.534;2022-10-16T10:50:18;4.30;;;1.13;;
13943;SDS011;7044;53.286;8.534;2022-10-16T10:52:53;3.67;;;1.20;;
13943;SDS011;7044;53.286;8.534;2022-10-16T10:55:31;2.90;;;0.95;;
13943;SDS011;7044;53.286;8.534;2022-10-16T10:58:15;2.15;;;1.00;;
13943;SDS011;7044;53.286;8.534;2022-10-16T11:01:04;1.77;;;1.25;;
13943;SDS011;7044;53.286;8.534;2022-10-16T11:03:41;4.05;;;0.80;;
13943;SDS011;7044;53.286;8.534;2022-10-16T11:06:24;2.40;;;2.00;;
13943;SDS011;7044;53.286;8.534;2022-10-16T11:08:57;1.77;;;1.13;;
13943;SDS011;7044;53.286;8.534;2022-10-16T11:11:32;3.60;;;1.00;;
13943;SDS011;7044;53.286;8.534;2022-10-16T11:14:04;4.18;;;1.00;;
13943;SDS011;7044;53.286;8.534;2022-10-16T11:16:38;3.10;;;1.27;;
13943;SDS011;7044;53.286;8.534;2022-10-16T11:19:11;1.42;;;1.17;;
13943;SDS011;7044;53.286;8.534;2022-10-16T11:21:44;4.53;;;2.20;;
13943;SDS011;7044;53.286;8.534;2022-10-16T11:24:16;14.73;;;1.65;;
13943;SDS011;7044;53.286;8.534;2022-10-16T11:26:49;7.43;;;1.27;;
13943;SDS011;7044;53.286;8.534;2022-10-16T11:29:21;3.30;;;1.10;;
13943;SDS011;7044;53.286;8.534;2022-10-16T11:31:54;1.90;;;1.20;;
13943;SDS011;7044;53.286;8.534;2022-10-16T11:34:27;4.13;;;1.10;;
13943;SDS011;7044;53.286;8.534;2022-10-16T11:36:58;3.25;;;1.23;;
13943;SDS011;7044;53.286;8.534;2022-10-16T11:39:31;4.72;;;1.65;;
13943;SDS011;7044;53.286;8.534;2022-10-16T11:42:01;3.92;;;1.02;;
13943;SDS011;7044;53.286;8.534;2022-10-16T11:44:36;5.03;;;1.48;;
13943;SDS011;7044;53.286;8.534;2022-10-16T11:47:23;6.30;;;1.10;;
13943;SDS011;7044;53.286;8.534;2022-10-16T11:49:56;1.65;;;1.02;;
13943;SDS011;7044;53.286;8.534;2022-10-16T11:52:28;11.38;;;1.40;;
13943;SDS011;7044;53.286;8.534;2022-10-16T11:55:03;5.43;;;1.30;;
13943;SDS011;7044;53.286;8.534;2022-10-16T11:57:38;7.20;;;1.45;;
13943;SDS011;7044;53.286;8.534;2022-10-16T12:00:09;3.25;;;1.33;;
13943;SDS011;7044;53.286;8.534;2022-10-16T12:02:50;6.60;;;1.58;;
13943;SDS011;7044;53.286;8.534;2022-10-16T12:05:25;3.90;;;1.00;;
13943;SDS011;7044;53.286;8.534;2022-10-16T12:08:05;7.78;;;1.38;;
13943;SDS011;7044;53.286;8.534;2022-10-16T12:10:36;12.02;;;1.33;;
13943;SDS011;7044;53.286;8.534;2022-10-16T12:13:25;7.40;;;1.40;;
13943;SDS011;7044;53.286;8.534;2022-10-16T12:16:03;6.03;;;1.30;;
13943;SDS011;7044;53.286;8.534;2022-10-16T12:18:31;4.68;;;1.02;;
13943;SDS011;7044;53.286;8.534;2022-10-16T12:20:58;5.57;;;1.23;;
13943;SDS011;7044;53.286;8.534;2022-10-16T12:23:30;5.93;;;1.42;;
13943;SDS011;7044;53.286;8.534;2022-10-16T12:25:58;6.78;;;1.27;;
13943;SDS011;7044;53.286;8.534;2022-10-16T12:28:29;2.90;;;1.42;;
13943;SDS011;7044;53.286;8.534;2022-10-16T12:30:58;3.72;;;1.13;;
13943;SDS011;7044;53.286;8.534;2022-10-16T12:33:27;6.07;;;1.15;;
13943;SDS011;7044;53.286;8.534;2022-10-16T12:35:55;5.20;;;1.02;;
13943;SDS011;7044;53.286;8.534;2022-10-16T12:38:25;4.43;;;1.33;;
13943;SDS011;7044;53.286;8.534;2022-10-16T12:40:55;2.58;;;1.38;;
13943;SDS011;7044;53.286;8.534;2022-10-16T12:43:26;5.53;;;1.40;;
13943;SDS011;7044;53.286;8.534;2022-10-16T12:46:21;6.00;;;1.40;;
13943;SDS011;7044;53.286;8.534;2022-10-16T12:48:50;4.97;;;1.30;;
13943;SDS011;7044;53.286;8.534;2022-10-16T12:51:25;3.75;;;0.95;;
13943;SDS011;7044;53.286;8.534;2022-10-16T12:54:02;6.55;;;1.33;;
13943;SDS011;7044;53.286;8.534;2022-10-16T12:56:33;4.10;;;1.25;;
13943;SDS011;7044;53.286;8.534;2022-10-16T12:59:11;6.43;;;1.48;;
13943;SDS011;7044;53.286;8.534;2022-10-16T13:01:54;3.95;;;1.23;;
13943;SDS011;7044;53.286;8.534;2022-10-16T13:04:34;1.73;;;1.10;;
13943;SDS011;7044;53.286;8.534;2022-10-16T13:07:31;5.88;;;1.42;;
13943;SDS011;7044;53.286;8.534;2022-10-16T13:10:19;3.45;;;1.17;;
13943;SDS011;7044;53.286;8.534;2022-10-16T13:12:58;5.97;;;1.30;;
13943;SDS011;7044;53.286;8.534;2022-10-16T13:15:49;2.42;;;1.10;;
13943;SDS011;7044;53.286;8.534;2022-10-16T13:18:32;7.63;;;1.20;;
13943;SDS011;7044;53.286;8.534;2022-10-16T13:21:09;3.78;;;1.45;;
13943;SDS011;7044;53.286;8.534;2022-10-16T13:23:47;3.45;;;1.20;;
13943;SDS011;7044;53.286;8.534;2022-10-16T13:26:22;3.78;;;1.48;;
13943;SDS011;7044;53.286;8.534;2022-10-16T13:28:58;5.28;;;1.10;;
13943;SDS011;7044;53.286;8.534;2022-10-16T13:31:28;3.72;;;1.33;;
13943;SDS011;7044;53.286;8.534;2022-10-16T13:33:56;2.60;;;1.20;;
13943;SDS011;7044;53.286;8.534;2022-10-16T13:36:25;4.45;;;1.20;;
13943;SDS011;7044;53.286;8.534;2022-10-16T13:39:00;6.13;;;1.63;;
13943;SDS011;7044;53.286;8.534;2022-10-16T13:41:33;6.15;;;1.35;;
13943;SDS011;7044;53.286;8.534;2022-10-16T13:44:00;4.28;;;1.23;;
13943;SDS011;7044;53.286;8.534;2022-10-16T13:46:28;4.82;;;1.40;;
13943;SDS011;7044;53.286;8.534;2022-10-16T13:49:00;6.57;;;1.55;;
13943;SDS011;7044;53.286;8.534;2022-10-16T13:51:30;6.97;;;1.35;;
13943;SDS011;7044;53.286;8.534;2022-10-16T13:53:58;6.63;;;1.33;;
13943;SDS011;7044;53.286;8.534;2022-10-16T13:56:26;6.50;;;1.30;;
13943;SDS011;7044;53.286;8.534;2022-10-16T13:59:00;3.53;;;1.30;;
13943;SDS011;7044;53.286;8.534;2022-10-16T14:01:30;3.47;;;1.25;;
13943;SDS011;7044;53.286;8.534;2022-10-16T14:04:00;6.80;;;1.35;;
13943;SDS011;7044;53.286;8.534;2022-10-16T14:06:30;3.65;;;1.02;;
13943;SDS011;7044;53.286;8.534;2022-10-16T14:08:59;5.85;;;1.55;;
13943;SDS011;7044;53.286;8.534;2022-10-16T14:11:30;5.07;;;1.10;;
13943;SDS011;7044;53.286;8.534;2022-10-16T14:13:57;5.55;;;1.25;;
13943;SDS011;7044;53.286;8.534;2022-10-16T14:16:25;5.05;;;1.30;;
13943;SDS011;7044;53.286;8.534;2022-10-16T14:18:57;9.27;;;1.48;;
13943;SDS011;7044;53.286;8.534;2022-10-16T14:21:25;5.95;;;1.30;;
13943;SDS011;7044;53.286;8.534;2022-10-16T14:23:53;10.32;;;1.73;;
13943;SDS011;7044;53.286;8.534;2022-10-16T14:26:22;9.52;;;1.88;;
13943;SDS011;7044;53.286;8.534;2022-10-16T14:29:00;5.60;;;1.20;;
13943;SDS011;7044;53.286;8.534;2022-10-16T14:31:31;8.13;;;2.03;;
13943;SDS011;7044;53.286;8.534;2022-10-16T14:34:02;4.47;;;1.10;;
13943;SDS011;7044;53.286;8.534;2022-10-16T14:36:29;4.07;;;1.25;;
13943;SDS011;7044;53.286;8.534;2022-10-16T14:38:58;7.20;;;1.45;;
13943;SDS011;7044;53.286;8.534;2022-10-16T14:41:27;8.38;;;1.63;;
13943;SDS011;7044;53.286;8.534;2022-10-16T14:43:55;7.20;;;1.58;;
13943;SDS011;7044;53.286;8.534;2022-10-16T14:46:28;2.25;;;1.25;;
13943;SDS011;7044;53.286;8.534;2022-10-16T14:49:00;7.57;;;1.40;;
13943;SDS011;7044;53.286;8.534;2022-10-16T14:51:31;3.90;;;1.58;;
13943;SDS011;7044;53.286;8.534;2022-10-16T14:53:58;6.72;;;1.58;;
13943;SDS011;7044;53.286;8.534;2022-10-16T14:56:28;6.18;;;1.50;;
13943;SDS011;7044;53.286;8.534;2022-10-16T14:58:56;10.73;;;1.33;;
13943;SDS011;7044;53.286;8.534;2022-10-16T15:01:23;5.88;;;1.27;;
13943;SDS011;7044;53.286;8.534;2022-10-16T15:03:50;8.20;;;1.33;;
13943;SDS011;7044;53.286;8.534;2022-10-16T15:06:21;2.35;;;1.20;;
13943;SDS011;7044;53.286;8.534;2022-10-16T15:08:48;7.03;;;1.05;;
13943;SDS011;7044;53.286;8.534;2022-10-16T15:11:15;3.72;;;1.23;;
13943;SDS011;7044;53.286;8.534;2022-10-16T15:13:43;6.35;;;1.50;;
13943;SDS011;7044;53.286;8.534;2022-10-16T15:16:11;7.22;;;1.52;;
13943;SDS011;7044;53.286;8.534;2022-10-16T15:18:39;7.00;;;1.40;;
13943;SDS011;7044;53.286;8.534;2022-10-16T15:21:06;6.28;;;1.40;;